Time;durP1;ratioP1;P1;durP2;ratioP2;P2;SDS_P1;SDS_P2;PMS_P1;PMS_P2;Temp;Humidity;BMP_temperature;BMP_pressure;BME280_temperature;BME280_humidity;BME280_pressure;Samples;Min_cycle;Max_cycle;Signal;HPM_P1;HPM_P2
2021/01/23 00:01:49;;;;;;;21.57;15.57;;;3.00;99.90;;;;;;4995813;28;20537;-49
2021/01/23 00:04:16;;;;;;;26.87;17.07;;;3.00;99.90;;;;;;4995160;28;20547;-49
2021/01/23 00:06:44;;;;;;;23.07;16.77;;;3.00;99.90;;;;;;5003684;28;20498;-49
2021/01/23 00:09:11;;;;;;;23.83;16.93;;;3.00;99.90;;;;;;4999950;28;20877;-50
2021/01/23 00:11:39;;;;;;;23.77;15.90;;;2.90;99.90;;;;;;5002855;28;20480;-49
2021/01/23 00:14:07;;;;;;;24.23;16.17;;;2.90;99.90;;;;;;5005533;28;20476;-49
2021/01/23 00:16:35;;;;;;;25.70;17.10;;;2.90;99.90;;;;;;5005794;28;20477;-49
2021/01/23 00:19:03;;;;;;;25.03;16.63;;;3.00;99.90;;;;;;4978442;28;20865;-49
2021/01/23 00:21:30;;;;;;;21.97;16.83;;;2.90;99.90;;;;;;977761;28;10001995;-48
2021/01/23 00:23:57;;;;;;;25.73;17.40;;;2.90;99.90;;;;;;5007582;28;20233;-48
2021/01/23 00:26:25;;;;;;;24.97;16.63;;;2.90;99.90;;;;;;5007052;28;20472;-49
2021/01/23 00:28:52;;;;;;;25.63;18.40;;;3.00;99.90;;;;;;5006587;28;20547;-49
2021/01/23 00:31:20;;;;;;;25.13;17.67;;;3.00;99.90;;;;;;5007249;28;20503;-50
2021/01/23 00:33:48;;;;;;;27.43;16.93;;;3.00;99.90;;;;;;5006339;28;21083;-49
2021/01/23 00:36:15;;;;;;;21.10;16.97;;;3.00;99.90;;;;;;5006767;28;20516;-52
2021/01/23 00:38:44;;;;;;;23.97;18.30;;;3.00;99.90;;;;;;5008656;28;20880;-49
2021/01/23 00:41:12;;;;;;;25.50;17.47;;;3.00;99.90;;;;;;5029155;28;20561;-49
2021/01/23 00:43:39;;;;;;;26.37;17.87;;;3.00;99.90;;;;;;5013799;28;21008;-49
2021/01/23 00:46:06;;;;;;;24.93;17.73;;;2.90;99.90;;;;;;4990043;28;20505;-49
2021/01/23 00:48:35;;;;;;;21.83;17.77;;;2.90;99.90;;;;;;4991451;28;20502;-49
2021/01/23 00:51:05;;;;;;;26.47;17.63;;;2.80;99.90;;;;;;5006212;28;20481;-49
2021/01/23 00:53:32;;;;;;;27.40;18.03;;;2.90;99.90;;;;;;4997553;28;20490;-50
2021/01/23 00:56:00;;;;;;;27.23;19.83;;;2.90;99.90;;;;;;5021614;28;20482;-50
2021/01/23 00:58:27;;;;;;;25.73;18.67;;;2.90;99.90;;;;;;5046114;28;20822;-49
2021/01/23 01:00:54;;;;;;;27.63;19.43;;;2.90;99.90;;;;;;5030546;28;20552;-49
2021/01/23 01:03:22;;;;;;;29.30;19.07;;;2.90;99.90;;;;;;4992025;28;20478;-49
2021/01/23 01:06:01;;;;;;;25.30;17.97;;;2.80;99.90;;;;;;4988239;28;20565;-49
2021/01/23 01:08:29;;;;;;;26.70;18.73;;;2.80;99.90;;;;;;4990992;28;20519;-52
2021/01/23 01:10:56;;;;;;;26.20;18.40;;;2.80;99.90;;;;;;5002838;28;20474;-49
2021/01/23 01:13:23;;;;;;;29.50;19.30;;;2.90;99.90;;;;;;5027997;28;20483;-49
2021/01/23 01:15:51;;;;;;;29.93;21.57;;;2.90;99.90;;;;;;5026060;28;20898;-49
2021/01/23 01:18:18;;;;;;;30.77;21.83;;;2.80;99.90;;;;;;5029782;28;20941;-49
2021/01/23 01:20:46;;;;;;;32.43;20.83;;;2.80;99.90;;;;;;5028721;28;20540;-49
2021/01/23 01:23:14;;;;;;;27.43;20.17;;;2.80;99.90;;;;;;5018561;28;20555;-49
2021/01/23 01:25:41;;;;;;;29.47;18.87;;;2.80;99.90;;;;;;5027746;28;20490;-49
2021/01/23 01:28:09;;;;;;;34.90;23.13;;;3.00;99.90;;;;;;5029980;28;20994;-49
2021/01/23 01:30:36;;;;;;;31.03;20.93;;;3.00;99.90;;;;;;5030038;28;20498;-48
2021/01/23 01:33:04;;;;;;;25.53;19.07;;;2.80;99.90;;;;;;5005349;28;20486;-48
2021/01/23 01:35:32;;;;;;;31.90;22.80;;;2.90;99.90;;;;;;5011996;28;20482;-50
2021/01/23 01:37:59;;;;;;;30.30;21.73;;;2.90;99.90;;;;;;5025202;28;20564;-49
2021/01/23 01:40:28;;;;;;;27.27;20.60;;;2.80;99.90;;;;;;5013791;28;20556;-49
2021/01/23 01:42:57;;;;;;;29.50;21.47;;;2.80;99.90;;;;;;5016804;28;20965;-50
2021/01/23 01:45:25;;;;;;;29.27;19.83;;;2.80;99.90;;;;;;5009655;28;20472;-49
2021/01/23 01:47:54;;;;;;;31.37;20.73;;;2.80;99.90;;;;;;5009779;28;20503;-49
2021/01/23 01:50:22;;;;;;;26.47;20.30;;;2.80;99.90;;;;;;5010037;28;20491;-49
2021/01/23 01:52:51;;;;;;;27.53;20.57;;;2.80;99.90;;;;;;4996638;28;20883;-49
2021/01/23 01:55:19;;;;;;;25.70;20.07;;;2.80;99.90;;;;;;4989076;28;22120;-49
2021/01/23 01:57:47;;;;;;;30.67;22.07;;;2.80;99.90;;;;;;4989950;28;20563;-49
2021/01/23 02:00:17;;;;;;;26.03;20.37;;;2.80;99.90;;;;;;4990223;28;20547;-49
2021/01/23 02:03:15;;;;;;;29.03;21.07;;;2.80;99.90;;;;;;4989265;28;20544;-48
2021/01/23 02:05:52;;;;;;;25.87;20.70;;;2.70;99.90;;;;;;4988938;28;20561;-48
2021/01/23 02:08:30;;;;;;;28.20;20.27;;;2.70;99.90;;;;;;4989988;28;20535;-49
2021/01/23 02:11:06;;;;;;;32.87;22.00;;;2.70;99.90;;;;;;5006256;28;20542;-49
2021/01/23 02:13:38;;;;;;;28.50;20.90;;;2.70;99.90;;;;;;5017619;28;20470;-49
2021/01/23 02:16:12;;;;;;;29.97;22.50;;;2.60;99.90;;;;;;5028255;28;20526;-49
2021/01/23 02:18:54;;;;;;;30.73;20.57;;;2.70;99.90;;;;;;5029088;28;20504;-49
2021/01/23 02:22:04;;;;;;;30.97;23.10;;;2.70;99.90;;;;;;5002962;28;20495;-49
2021/01/23 02:24:32;;;;;;;29.93;22.50;;;2.70;99.90;;;;;;4995714;28;20568;-50
2021/01/23 02:27:18;;;;;;;30.07;21.40;;;2.70;99.90;;;;;;5008650;28;20565;-49
2021/01/23 02:30:04;;;;;;;33.87;22.17;;;2.70;99.90;;;;;;5007605;28;20584;-49
2021/01/23 02:32:35;;;;;;;34.93;22.87;;;2.60;99.90;;;;;;5003924;28;20482;-49
2021/01/23 02:35:05;;;;;;;33.63;22.63;;;2.60;99.90;;;;;;5018201;28;20477;-49
2021/01/23 02:37:34;;;;;;;34.97;22.80;;;2.60;99.90;;;;;;5017129;28;20506;-49
2021/01/23 02:40:02;;;;;;;32.73;21.77;;;2.60;99.90;;;;;;5008702;28;20509;-49
2021/01/23 02:42:30;;;;;;;33.33;23.80;;;2.60;99.90;;;;;;5008735;28;20480;-49
2021/01/23 02:44:57;;;;;;;31.50;22.73;;;2.60;99.90;;;;;;5008111;28;20480;-49
2021/01/23 02:47:25;;;;;;;31.67;23.73;;;2.60;99.90;;;;;;5008834;28;21041;-49
2021/01/23 02:49:53;;;;;;;35.63;23.57;;;2.60;99.90;;;;;;5008378;28;20477;-49
2021/01/23 02:52:30;;;;;;;34.00;23.53;;;2.60;99.90;;;;;;5017486;28;20960;-49
2021/01/23 02:55:05;;;;;;;37.07;25.17;;;2.50;99.90;;;;;;5027509;28;20504;-49
2021/01/23 02:57:33;;;;;;;31.20;21.57;;;2.70;99.90;;;;;;5027884;28;20561;-49
2021/01/23 03:00:23;;;;;;;41.17;26.97;;;2.80;99.90;;;;;;4999185;28;20473;-49
2021/01/23 03:02:55;;;;;;;37.87;26.03;;;2.70;99.90;;;;;;4982375;28;20562;-49
2021/01/23 03:05:26;;;;;;;39.80;25.77;;;2.80;99.90;;;;;;4985213;28;21027;-50
2021/01/23 03:07:55;;;;;;;36.90;24.47;;;2.70;99.90;;;;;;4985795;28;20560;-49
2021/01/23 03:10:38;;;;;;;31.23;24.23;;;2.60;99.90;;;;;;4971335;28;20484;-49
2021/01/23 03:13:07;;;;;;;34.13;22.73;;;2.60;99.90;;;;;;4966072;28;20498;-49
2021/01/23 03:15:35;;;;;;;33.67;24.27;;;2.60;99.90;;;;;;4983768;28;20631;-48
2021/01/23 03:18:04;;;;;;;32.33;24.90;;;2.60;99.90;;;;;;4986759;28;20490;-49
2021/01/23 03:20:33;;;;;;;35.77;24.73;;;2.50;99.90;;;;;;5001663;28;20480;-49
2021/01/23 03:23:01;;;;;;;33.70;23.80;;;2.50;99.90;;;;;;5021333;28;20476;-49
2021/01/23 03:25:30;;;;;;;35.10;25.20;;;2.60;99.90;;;;;;5006712;28;20465;-49
2021/01/23 03:27:59;;;;;;;37.87;24.27;;;2.50;99.90;;;;;;5017992;28;20479;-49
2021/01/23 03:30:28;;;;;;;35.50;24.27;;;2.50;99.90;;;;;;5009933;28;20475;-48
2021/01/23 03:32:57;;;;;;;37.77;24.63;;;2.50;99.90;;;;;;5009060;28;20471;-49
2021/01/23 03:35:25;;;;;;;32.77;23.87;;;2.50;99.90;;;;;;5016940;28;20867;-49
2021/01/23 03:37:53;;;;;;;38.77;25.63;;;2.40;99.90;;;;;;5008284;28;20473;-49
2021/01/23 03:40:21;;;;;;;34.50;24.70;;;2.50;99.90;;;;;;5016045;28;20475;-48
2021/01/23 03:42:48;;;;;;;37.13;25.57;;;2.50;99.90;;;;;;5021385;28;20500;-49
2021/01/23 03:45:16;;;;;;;37.70;25.73;;;2.40;99.90;;;;;;5026026;28;21057;-49
2021/01/23 03:47:45;;;;;;;40.53;25.87;;;2.50;99.90;;;;;;5016719;28;20542;-49
2021/01/23 03:50:14;;;;;;;37.50;25.70;;;2.40;99.90;;;;;;4988554;28;20992;-49
2021/01/23 03:52:42;;;;;;;34.20;24.47;;;2.40;99.90;;;;;;4988552;28;20985;-49
2021/01/23 03:55:11;;;;;;;36.20;25.60;;;2.40;99.90;;;;;;4987471;28;20477;-48
2021/01/23 03:57:41;;;;;;;39.17;25.13;;;2.40;99.90;;;;;;4988395;28;20533;-49
2021/01/23 04:00:10;;;;;;;36.37;24.57;;;2.30;99.90;;;;;;4988245;28;20499;-49
2021/01/23 04:02:37;;;;;;;37.13;26.20;;;2.40;99.90;;;;;;4987629;28;20473;-49
2021/01/23 04:05:07;;;;;;;41.73;26.97;;;2.40;99.90;;;;;;4987274;28;20886;-48
2021/01/23 04:07:35;;;;;;;35.33;26.07;;;2.40;99.90;;;;;;4994561;28;20490;-49
2021/01/23 04:10:05;;;;;;;38.53;26.17;;;2.40;99.90;;;;;;5019610;28;20497;-50
2021/01/23 04:12:35;;;;;;;40.73;26.07;;;2.40;99.90;;;;;;5011411;28;20483;-49
2021/01/23 04:15:04;;;;;;;41.30;27.33;;;2.40;99.90;;;;;;5010717;28;20480;-49
2021/01/23 04:17:32;;;;;;;41.83;26.93;;;2.40;99.90;;;;;;5008485;28;20521;-49
2021/01/23 04:19:59;;;;;;;39.60;26.17;;;2.30;99.90;;;;;;5004042;28;20477;-49
2021/01/23 04:22:27;;;;;;;39.57;27.23;;;2.40;99.90;;;;;;4991431;28;20464;-49
2021/01/23 04:24:54;;;;;;;39.63;26.03;;;2.40;99.90;;;;;;5006886;28;20572;-49
2021/01/23 04:27:22;;;;;;;39.17;23.17;;;2.40;99.90;;;;;;5007422;28;20884;-49
2021/01/23 04:29:50;;;;;;;43.47;29.20;;;2.50;99.90;;;;;;5006821;28;20535;-49
2021/01/23 04:32:17;;;;;;;45.50;28.87;;;2.40;99.90;;;;;;5020012;28;20531;-49
2021/01/23 04:34:45;;;;;;;44.70;29.40;;;2.50;99.90;;;;;;5030431;28;20482;-49
2021/01/23 04:37:13;;;;;;;44.40;26.03;;;2.40;99.90;;;;;;5030108;28;21179;-50
2021/01/23 04:39:41;;;;;;;41.57;28.77;;;2.50;99.90;;;;;;4991925;28;20534;-50
2021/01/23 04:42:09;;;;;;;44.20;30.00;;;2.50;99.90;;;;;;4991141;28;20532;-49
2021/01/23 04:44:37;;;;;;;41.43;27.13;;;2.50;99.90;;;;;;4991003;28;20502;-49
2021/01/23 04:47:05;;;;;;;46.57;28.37;;;2.40;99.90;;;;;;4991365;28;20527;-49
2021/01/23 04:49:34;;;;;;;46.33;29.33;;;2.40;99.90;;;;;;5018308;28;20474;-49
2021/01/23 04:52:05;;;;;;;45.03;29.43;;;2.30;99.90;;;;;;5028210;28;20537;-49
2021/01/23 04:54:33;;;;;;;45.83;28.70;;;2.30;99.90;;;;;;5030164;28;20477;-49
2021/01/23 04:57:02;;;;;;;39.97;28.10;;;2.30;99.90;;;;;;5030237;28;21059;-49
2021/01/23 04:59:30;;;;;;;39.57;27.37;;;2.40;99.90;;;;;;4994301;28;20557;-50
2021/01/23 05:02:21;;;;;;;46.07;27.90;;;2.40;99.90;;;;;;4991568;28;20869;-49
2021/01/23 05:04:52;;;;;;;41.37;27.73;;;2.40;99.90;;;;;;4990481;28;20483;-48
2021/01/23 05:07:27;;;;;;;40.93;27.87;;;2.40;99.90;;;;;;4991147;28;20935;-49
2021/01/23 05:09:55;;;;;;;42.70;26.60;;;2.40;99.90;;;;;;5013059;28;20491;-49
2021/01/23 05:12:38;;;;;;;44.67;30.07;;;2.40;99.90;;;;;;5028325;28;20467;-49
2021/01/23 05:15:10;;;;;;;44.67;27.70;;;2.40;99.90;;;;;;5029571;28;21060;-49
2021/01/23 05:17:53;;;;;;;44.23;28.93;;;2.40;99.90;;;;;;5025394;28;20488;-49
2021/01/23 05:20:37;;;;;;;39.57;27.53;;;2.40;99.90;;;;;;5009736;28;20473;-50
2021/01/23 05:23:07;;;;;;;40.37;27.13;;;2.40;99.90;;;;;;5013794;28;20576;-49
2021/01/23 05:25:37;;;;;;;38.77;25.80;;;2.40;99.90;;;;;;5006809;28;20507;-50
2021/01/23 05:28:06;;;;;;;41.73;28.50;;;2.40;99.90;;;;;;5012901;28;20941;-51
2021/01/23 05:30:44;;;;;;;41.27;27.23;;;2.40;99.90;;;;;;5010084;28;20487;-49
2021/01/23 05:33:15;;;;;;;44.77;27.73;;;2.40;99.90;;;;;;5008213;28;20569;-49
2021/01/23 05:35:44;;;;;;;40.77;26.80;;;2.40;99.90;;;;;;5009164;28;20567;-50
2021/01/23 05:38:24;;;;;;;40.83;27.40;;;2.40;99.90;;;;;;5009640;28;20504;-49
2021/01/23 05:40:54;;;;;;;41.33;27.93;;;2.40;99.90;;;;;;5009773;28;21021;-49
2021/01/23 05:43:35;;;;;;;41.23;28.07;;;2.30;99.90;;;;;;5009510;28;20498;-48
2021/01/23 05:46:06;;;;;;;41.27;28.00;;;2.30;99.90;;;;;;5008915;28;20567;-49
2021/01/23 05:48:40;;;;;;;42.20;28.77;;;2.30;99.90;;;;;;5012787;28;20498;-49
2021/01/23 05:51:10;;;;;;;43.43;27.93;;;2.30;99.90;;;;;;5021188;28;20479;-50
2021/01/23 05:53:37;;;;;;;42.77;28.07;;;2.30;99.90;;;;;;5028429;28;20482;-50
2021/01/23 05:56:06;;;;;;;42.87;28.37;;;2.30;99.90;;;;;;5018024;28;20489;-48
2021/01/23 05:58:36;;;;;;;40.07;27.00;;;2.30;99.90;;;;;;5011035;28;20523;-49
2021/01/23 06:01:08;;;;;;;41.20;27.20;;;2.30;99.90;;;;;;5009727;28;20992;-49
2021/01/23 06:03:39;;;;;;;41.97;26.67;;;2.30;99.90;;;;;;5008882;28;20825;-48
2021/01/23 06:06:07;;;;;;;40.77;27.63;;;2.30;99.90;;;;;;5009654;28;20478;-49
2021/01/23 06:08:42;;;;;;;41.70;28.00;;;2.20;99.90;;;;;;5009724;28;20563;-49
2021/01/23 06:11:40;;;;;;;43.53;27.77;;;2.20;99.90;;;;;;5009308;28;20500;-49
2021/01/23 06:14:07;;;;;;;40.73;26.43;;;2.20;99.90;;;;;;5004086;28;20936;-49
2021/01/23 06:16:39;;;;;;;47.00;29.13;;;2.30;99.90;;;;;;5012822;28;20557;-49
2021/01/23 06:19:44;;;;;;;42.50;28.77;;;2.20;99.90;;;;;;5029475;28;20492;-49
2021/01/23 06:22:12;;;;;;;45.10;28.13;;;2.20;99.90;;;;;;4982974;28;20777;-49
2021/01/23 06:24:54;;;;;;;45.00;29.03;;;2.20;99.90;;;;;;5007312;28;20522;-49
2021/01/23 06:27:37;;;;;;;43.93;29.10;;;2.20;99.90;;;;;;5028984;28;20878;-49
2021/01/23 06:30:28;;;;;;;43.93;28.07;;;2.20;99.90;;;;;;5024008;28;20641;-49
2021/01/23 06:32:56;;;;;;;47.70;30.00;;;2.30;99.90;;;;;;5028203;28;21036;-49
2021/01/23 06:35:24;;;;;;;43.30;28.93;;;2.20;99.90;;;;;;5020145;28;20479;-49
2021/01/23 06:38:13;;;;;;;43.00;29.10;;;2.30;99.90;;;;;;5014678;28;20476;-49
2021/01/23 06:40:40;;;;;;;45.57;29.43;;;2.20;99.90;;;;;;5008858;28;20468;-48
2021/01/23 06:43:08;;;;;;;46.30;29.87;;;2.20;99.90;;;;;;5008329;28;20563;-49
2021/01/23 06:45:37;;;;;;;44.63;29.13;;;2.20;99.90;;;;;;4989663;28;20532;-50
2021/01/23 06:48:05;;;;;;;42.37;28.57;;;2.20;99.90;;;;;;4989186;28;21007;-49
2021/01/23 06:50:39;;;;;;;44.67;29.23;;;2.20;99.90;;;;;;4988416;28;20529;-49
2021/01/23 06:53:08;;;;;;;43.97;28.40;;;2.20;99.90;;;;;;4988584;28;20890;-49
2021/01/23 06:55:50;;;;;;;43.17;28.03;;;2.10;99.90;;;;;;5015107;28;20477;-49
2021/01/23 06:58:24;;;;;;;48.30;29.83;;;2.20;99.90;;;;;;5026282;28;20522;-49
2021/01/23 07:00:54;;;;;;;50.07;29.57;;;2.20;99.90;;;;;;5018016;28;20476;-49
2021/01/23 07:03:23;;;;;;;43.70;27.70;;;2.20;99.90;;;;;;5003500;28;20559;-50
2021/01/23 07:05:55;;;;;;;48.13;29.10;;;2.20;99.90;;;;;;5008717;28;20506;-49
2021/01/23 07:08:29;;;;;;;45.20;28.57;;;2.20;99.90;;;;;;5010594;28;20464;-48
2021/01/23 07:11:11;;;;;;;44.60;27.97;;;2.20;99.90;;;;;;5002966;28;20547;-49
2021/01/23 07:13:55;;;;;;;45.63;27.27;;;2.20;99.90;;;;;;5013095;28;20495;-48
2021/01/23 07:16:23;;;;;;;43.23;27.67;;;2.20;99.90;;;;;;5011528;28;20553;-49
2021/01/23 07:18:55;;;;;;;41.37;26.50;;;2.20;99.90;;;;;;5007531;28;20470;-50
2021/01/23 07:21:25;;;;;;;42.17;27.93;;;2.10;99.90;;;;;;5004592;28;20477;-48
2021/01/23 07:23:54;;;;;;;44.93;28.40;;;2.10;99.90;;;;;;5000984;28;20552;-48
2021/01/23 07:26:22;;;;;;;49.17;28.90;;;2.10;99.90;;;;;;5025718;28;20555;-49
2021/01/23 07:28:51;;;;;;;46.20;29.00;;;2.10;99.90;;;;;;5019105;28;20552;-50
2021/01/23 07:31:24;;;;;;;45.53;25.77;;;2.10;99.90;;;;;;4992380;28;20570;-49
2021/01/23 07:33:53;;;;;;;45.50;28.63;;;2.10;99.90;;;;;;5006702;28;20970;-49
2021/01/23 07:36:35;;;;;;;46.30;28.97;;;2.20;99.90;;;;;;5007729;28;20566;-51
2021/01/23 07:39:08;;;;;;;41.70;27.60;;;2.10;99.90;;;;;;5007873;28;20598;-49
2021/01/23 07:41:38;;;;;;;43.87;28.57;;;2.20;99.90;;;;;;5009564;28;20875;-49
2021/01/23 07:44:10;;;;;;;42.73;27.83;;;2.20;99.90;;;;;;5011264;28;20533;-49
2021/01/23 07:46:41;;;;;;;44.93;28.27;;;2.20;99.90;;;;;;5012244;28;20479;-49
2021/01/23 07:49:11;;;;;;;40.80;26.40;;;2.10;99.90;;;;;;5007006;28;20549;-49
2021/01/23 07:51:39;;;;;;;46.17;28.20;;;2.20;99.90;;;;;;5009483;28;20561;-49
2021/01/23 07:54:11;;;;;;;46.47;28.37;;;2.20;99.90;;;;;;5010884;28;20489;-49
2021/01/23 07:56:52;;;;;;;44.53;26.60;;;2.20;99.90;;;;;;5004492;28;20500;-49
2021/01/23 07:59:20;;;;;;;42.33;27.60;;;2.20;99.90;;;;;;5012502;28;20475;-50
2021/01/23 08:01:47;;;;;;;45.13;28.27;;;2.20;99.90;;;;;;5018574;28;20512;-49
2021/01/23 08:04:32;;;;;;;44.30;26.57;;;2.20;99.90;;;;;;5010525;28;20831;-48
2021/01/23 08:07:20;;;;;;;44.10;27.40;;;2.20;99.90;;;;;;5011351;28;20530;-49
2021/01/23 08:10:07;;;;;;;46.50;28.37;;;2.20;99.90;;;;;;5010170;28;20534;-49
2021/01/23 08:12:36;;;;;;;47.00;28.50;;;2.20;99.90;;;;;;5009087;28;20987;-49
2021/01/23 08:15:07;;;;;;;45.23;27.53;;;2.20;99.90;;;;;;5011860;28;20837;-49
2021/01/23 08:17:47;;;;;;;45.27;28.73;;;2.20;99.90;;;;;;5004456;28;21057;-50
2021/01/23 08:20:17;;;;;;;45.60;28.23;;;2.20;99.90;;;;;;4999685;28;20486;-49
2021/01/23 08:23:07;;;;;;;49.63;28.50;;;2.20;99.90;;;;;;5011998;28;21030;-49
2021/01/23 08:25:37;;;;;;;48.13;30.37;;;2.20;99.90;;;;;;5005102;28;20511;-49
2021/01/23 08:28:07;;;;;;;53.40;31.63;;;2.30;99.90;;;;;;5008202;28;20551;-48
2021/01/23 08:30:35;;;;;;;51.70;29.73;;;2.30;99.90;;;;;;5010864;28;20508;-49
2021/01/23 08:33:05;;;;;;;47.10;29.87;;;2.30;99.90;;;;;;5020276;28;20575;-48
2021/01/23 08:35:35;;;;;;;45.43;28.10;;;2.30;99.90;;;;;;5030422;28;20506;-49
2021/01/23 08:38:08;;;;;;;46.17;28.90;;;2.40;99.90;;;;;;5018088;28;20980;-52
2021/01/23 08:40:39;;;;;;;48.67;29.30;;;2.40;99.90;;;;;;5000396;28;20499;-50
2021/01/23 08:43:07;;;;;;;45.60;28.47;;;2.40;99.90;;;;;;5008239;28;20496;-49
2021/01/23 08:45:34;;;;;;;46.27;29.50;;;2.40;99.90;;;;;;4991316;28;20469;-49
2021/01/23 08:48:01;;;;;;;46.10;29.27;;;2.40;99.90;;;;;;4989380;28;20516;-48
2021/01/23 08:50:29;;;;;;;46.80;29.30;;;2.50;99.90;;;;;;4993092;28;20504;-49
2021/01/23 08:52:57;;;;;;;46.83;27.70;;;2.50;99.90;;;;;;5009354;28;21010;-48
2021/01/23 08:55:26;;;;;;;48.90;29.33;;;2.50;99.90;;;;;;5010226;28;20478;-49
2021/01/23 08:57:53;;;;;;;40.87;28.70;;;2.50;99.90;;;;;;5010141;28;20479;-49
2021/01/23 09:00:21;;;;;;;42.03;28.43;;;2.50;99.90;;;;;;5010924;28;20483;-50
2021/01/23 09:02:48;;;;;;;43.63;28.13;;;2.60;99.90;;;;;;5009746;28;20993;-49
2021/01/23 09:05:16;;;;;;;46.77;28.17;;;2.60;99.90;;;;;;5009589;28;20468;-50
2021/01/23 09:07:43;;;;;;;41.73;27.13;;;2.60;99.90;;;;;;5010377;28;20507;-49
2021/01/23 09:10:12;;;;;;;48.13;30.30;;;2.70;99.90;;;;;;5010069;28;20475;-49
2021/01/23 09:12:41;;;;;;;45.30;29.57;;;2.70;99.90;;;;;;5016206;28;20471;-48
2021/01/23 09:15:09;;;;;;;39.83;27.83;;;2.70;99.90;;;;;;5015904;28;20493;-49
2021/01/23 09:17:38;;;;;;;42.50;27.53;;;2.80;99.90;;;;;;5014741;28;20593;-49
2021/01/23 09:20:09;;;;;;;47.20;29.40;;;2.80;99.90;;;;;;5027545;28;20556;-49
2021/01/23 09:22:36;;;;;;;47.97;29.33;;;2.80;99.90;;;;;;5014471;28;20878;-49
2021/01/23 09:25:05;;;;;;;43.57;27.10;;;2.90;99.90;;;;;;5026786;28;20498;-48
2021/01/23 09:27:33;;;;;;;45.77;28.93;;;2.90;99.90;;;;;;5019382;28;21026;-49
2021/01/23 09:30:01;;;;;;;43.77;28.53;;;3.00;99.90;;;;;;5010200;28;20474;-49
2021/01/23 09:32:30;;;;;;;43.53;27.33;;;3.00;99.90;;;;;;5010021;28;20942;-49
2021/01/23 09:34:57;;;;;;;44.33;28.93;;;3.10;99.90;;;;;;5009126;28;20861;-50
2021/01/23 09:37:25;;;;;;;45.20;28.57;;;3.00;99.90;;;;;;5008496;28;20892;-49
2021/01/23 09:39:52;;;;;;;44.63;28.60;;;3.10;99.90;;;;;;5009506;28;20476;-50
2021/01/23 09:42:20;;;;;;;43.23;28.10;;;3.20;99.90;;;;;;5023573;28;20531;-48
2021/01/23 09:44:47;;;;;;;41.23;26.07;;;3.30;99.90;;;;;;5007826;28;20530;-49
2021/01/23 09:47:15;;;;;;;39.23;26.43;;;3.40;99.90;;;;;;5009654;28;20488;-49
2021/01/23 09:49:43;;;;;;;40.93;26.97;;;3.50;99.90;;;;;;5008914;28;21099;-49
2021/01/23 09:52:10;;;;;;;41.40;27.00;;;3.50;99.90;;;;;;5009441;28;20505;-49
2021/01/23 09:54:38;;;;;;;44.90;27.67;;;3.40;99.90;;;;;;5008895;28;20550;-49
2021/01/23 09:57:06;;;;;;;41.00;26.70;;;3.40;99.90;;;;;;5008851;28;20538;-48
2021/01/23 09:59:34;;;;;;;44.00;26.83;;;3.40;99.90;;;;;;5009446;28;20533;-51
2021/01/23 10:02:02;;;;;;;40.07;26.17;;;3.40;99.90;;;;;;5007806;28;20561;-49
2021/01/23 10:04:31;;;;;;;42.07;27.07;;;3.40;99.90;;;;;;5008050;28;20472;-50
2021/01/23 10:06:58;;;;;;;38.57;24.90;;;3.50;99.90;;;;;;5007098;28;20526;-49
2021/01/23 10:09:26;;;;;;;39.37;25.70;;;3.50;99.90;;;;;;5008388;28;20505;-48
2021/01/23 10:11:55;;;;;;;40.33;25.73;;;3.50;99.90;;;;;;5004293;28;20482;-49
2021/01/23 10:14:23;;;;;;;36.73;24.77;;;3.60;99.90;;;;;;5004502;28;20510;-49
2021/01/23 10:16:50;;;;;;;37.87;24.53;;;3.60;99.90;;;;;;5017051;28;20482;-48
2021/01/23 10:19:19;;;;;;;41.60;25.03;;;3.70;99.90;;;;;;5017969;28;20481;-50
2021/01/23 10:21:47;;;;;;;36.37;23.83;;;3.70;99.90;;;;;;5007194;28;20480;-49
2021/01/23 10:24:15;;;;;;;35.47;24.53;;;3.70;99.90;;;;;;4994998;28;20561;-48
2021/01/23 10:26:42;;;;;;;39.47;25.70;;;3.80;99.90;;;;;;4988162;28;20568;-49
2021/01/23 10:29:09;;;;;;;33.97;24.07;;;3.90;99.90;;;;;;4988372;28;20537;-49
2021/01/23 10:31:37;;;;;;;34.97;24.10;;;3.80;99.90;;;;;;5007617;28;20483;-49
2021/01/23 10:34:06;;;;;;;33.40;23.40;;;4.00;99.90;;;;;;5010533;28;20480;-50
2021/01/23 10:36:33;;;;;;;34.90;23.70;;;4.10;99.90;;;;;;5007291;28;20556;-51
2021/01/23 10:39:01;;;;;;;34.40;22.73;;;4.20;99.90;;;;;;5007299;28;20506;-49
2021/01/23 10:41:32;;;;;;;34.20;22.53;;;4.30;99.90;;;;;;4994028;28;20826;-48
2021/01/23 10:43:59;;;;;;;36.57;22.73;;;4.30;99.90;;;;;;4988279;28;20504;-49
2021/01/23 10:46:27;;;;;;;32.80;21.23;;;4.40;99.90;;;;;;4991311;28;20906;-49
2021/01/23 10:48:54;;;;;;;28.20;20.17;;;4.50;99.90;;;;;;4996198;28;20574;-49
2021/01/23 10:51:22;;;;;;;31.03;21.10;;;4.60;99.90;;;;;;4996177;28;20484;-49
2021/01/23 10:53:49;;;;;;;35.23;23.73;;;4.50;99.90;;;;;;4996561;28;20487;-50
2021/01/23 10:56:17;;;;;;;33.07;21.83;;;4.40;99.90;;;;;;4996348;28;20514;-49
2021/01/23 10:58:45;;;;;;;32.80;20.33;;;4.40;99.90;;;;;;4996334;28;20583;-49
2021/01/23 11:01:12;;;;;;;29.20;21.17;;;4.40;99.90;;;;;;4994948;28;20571;-49
2021/01/23 11:03:39;;;;;;;30.40;20.97;;;4.40;99.90;;;;;;4996354;28;20585;-51
2021/01/23 11:06:07;;;;;;;33.07;19.70;;;4.40;99.90;;;;;;4995236;28;20484;-49
2021/01/23 11:08:34;;;;;;;29.47;19.30;;;4.30;99.90;;;;;;4996330;28;20999;-49
2021/01/23 11:11:02;;;;;;;28.80;20.40;;;4.30;99.90;;;;;;4992286;28;21007;-51
2021/01/23 11:13:30;;;;;;;29.23;19.20;;;4.40;99.90;;;;;;4995434;28;20552;-49
2021/01/23 11:15:57;;;;;;;29.43;18.57;;;4.40;99.90;;;;;;4995241;28;20516;-48
2021/01/23 11:18:24;;;;;;;32.50;21.37;;;4.30;99.90;;;;;;4996662;28;20480;-49
2021/01/23 11:20:52;;;;;;;30.83;19.50;;;4.30;99.90;;;;;;4993960;28;20488;-49
2021/01/23 11:23:19;;;;;;;31.43;19.17;;;4.40;99.90;;;;;;4996242;28;21110;-49
2021/01/23 11:25:46;;;;;;;27.67;20.13;;;4.30;99.90;;;;;;4995518;28;21103;-49
2021/01/23 11:28:14;;;;;;;31.50;20.23;;;4.40;99.90;;;;;;4996250;28;20497;-49
2021/01/23 11:30:42;;;;;;;29.97;20.40;;;4.40;99.90;;;;;;4993911;28;20487;-49
2021/01/23 11:33:09;;;;;;;33.03;22.20;;;4.30;99.90;;;;;;4996614;28;20511;-50
2021/01/23 11:35:36;;;;;;;32.00;21.43;;;4.30;99.90;;;;;;4996171;28;20609;-49
2021/01/23 11:38:05;;;;;;;30.00;21.47;;;4.30;99.90;;;;;;4992251;28;20496;-50
2021/01/23 11:40:32;;;;;;;33.47;20.37;;;4.30;99.90;;;;;;4993131;28;20490;-49
2021/01/23 11:43:00;;;;;;;31.03;19.70;;;4.40;99.90;;;;;;4995943;28;21018;-50
2021/01/23 11:45:27;;;;;;;33.93;22.40;;;4.40;99.90;;;;;;4994312;28;20495;-49
2021/01/23 11:47:55;;;;;;;35.00;25.10;;;4.40;99.90;;;;;;4993827;28;20905;-50
2021/01/23 11:50:23;;;;;;;44.90;29.83;;;4.50;99.90;;;;;;4992039;28;20504;-50
2021/01/23 11:52:50;;;;;;;32.77;25.27;;;4.50;99.90;;;;;;5001296;28;20546;-49
2021/01/23 11:55:18;;;;;;;36.23;26.50;;;4.60;99.90;;;;;;4994115;28;20511;-49
2021/01/23 11:57:45;;;;;;;34.33;24.87;;;4.70;99.90;;;;;;4993778;28;20494;-49
2021/01/23 12:00:14;;;;;;;28.63;21.23;;;4.70;99.90;;;;;;4993331;28;20506;-50
2021/01/23 12:02:41;;;;;;;38.37;25.13;;;4.70;99.90;;;;;;4993212;28;20598;-49
2021/01/23 12:05:14;;;;;;;35.07;24.30;;;4.80;99.90;;;;;;4992018;28;20507;-50
2021/01/23 12:07:42;;;;;;;37.60;24.80;;;4.90;99.90;;;;;;4992982;28;20634;-49
2021/01/23 12:10:11;;;;;;;38.17;25.17;;;5.00;99.90;;;;;;4992140;28;20667;-51
2021/01/23 12:12:38;;;;;;;44.93;29.03;;;5.20;99.90;;;;;;4995706;28;21085;-50
2021/01/23 12:15:08;;;;;;;45.37;30.10;;;5.20;99.90;;;;;;4993827;28;20490;-48
2021/01/23 12:17:35;;;;;;;42.00;26.70;;;5.20;99.90;;;;;;4994294;28;20511;-48
2021/01/23 12:20:05;;;;;;;44.10;30.77;;;5.40;99.90;;;;;;4990795;28;20330;-49
2021/01/23 12:22:34;;;;;;;30.33;21.30;;;5.50;99.90;;;;;;4993833;28;21285;-49
2021/01/23 12:25:01;;;;;;;42.27;27.53;;;5.60;99.90;;;;;;4992612;28;20487;-50
2021/01/23 12:27:28;;;;;;;26.13;18.53;;;5.60;99.90;;;;;;4994847;28;20468;-49
2021/01/23 12:29:56;;;;;;;25.20;17.87;;;5.60;99.90;;;;;;4995990;28;20476;-50
2021/01/23 12:32:24;;;;;;;21.70;16.03;;;5.60;99.90;;;;;;4997335;28;20643;-52
2021/01/23 12:34:51;;;;;;;23.97;16.63;;;5.60;99.90;;;;;;4996493;28;20470;-49
2021/01/23 12:37:18;;;;;;;22.93;17.13;;;5.70;99.90;;;;;;4991285;28;20511;-49
2021/01/23 12:39:46;;;;;;;29.13;22.17;;;5.70;99.90;;;;;;4994514;28;20519;-50
2021/01/23 12:42:14;;;;;;;23.33;17.53;;;5.80;99.90;;;;;;4995114;28;20231;-49
2021/01/23 12:44:41;;;;;;;22.50;16.27;;;5.90;99.90;;;;;;4995396;28;20274;-49
2021/01/23 12:47:08;;;;;;;21.20;15.53;;;5.90;99.90;;;;;;4997368;28;20476;-49
2021/01/23 12:49:36;;;;;;;20.70;15.27;;;5.80;99.90;;;;;;4996509;28;21152;-49
2021/01/23 12:52:05;;;;;;;31.23;22.53;;;5.80;99.90;;;;;;4997805;28;20491;-49